Ocean Tomo — 3FID9 — position and weather

sailwx.info

Track history (hours):
 
Tides and Currents Weather Stations Pressure Air Temp Water Temp Dewpoint Dewpoint Depression Visibility Wind Speed Wind Dir Waves Ship Positions

Ocean Tomo

Last reported at 2016-Jul-22 02:23 UTC. Time now 2016-Jul-28 06:41 UTC.
Position N 29°11' W 093°39'.

Length 190 m; draft 11.9 m.

Type: Ship. MMSI: 372951000.

Date/timePositionNaut miles runAvg speedWind from/ knotsBaromVisibWave heightAir tempDewpointWater temp
2016-Jul-22 02:23N 29°11' W 093°39'44 9.0
2016-Jul-21 21:32N 29°52' W 093°56'5 5.2
2016-Jul-21 20:33N 29°56' W 093°52'0 0.0
2016-Jul-21 19:29N 29°56' W 093°52'0 0.0
2016-Jul-21 18:29N 29°56' W 093°52'0 0.0
2016-Jul-21 17:32N 29°56' W 093°52'0 0.0
2016-Jul-21 16:32N 29°56' W 093°52'0 0.0
2016-Jul-21 15:26N 29°56' W 093°52'0 0.0
2016-Jul-21 14:26N 29°56' W 093°52'0 0.0
2016-Jul-21 13:32N 29°56' W 093°52'0 0.0
2016-Jul-21 12:32N 29°56' W 093°52'0 0.0
2016-Jul-21 11:20N 29°56' W 093°52'0 0.0
2016-Jul-21 10:32N 29°56' W 093°52'0 0.0
2016-Jul-21 09:23N 29°56' W 093°52'0 0.0
2016-Jul-21 08:26N 29°56' W 093°52'0 0.0
2016-Jul-21 06:32N 29°56' W 093°52'0 0.0
2016-Jul-21 05:29N 29°56' W 093°52'0 0.0
2016-Jul-21 04:29N 29°56' W 093°52'0 0.0
2016-Jul-21 03:32N 29°56' W 093°52'0 0.0
2016-Jul-21 02:32N 29°56' W 093°52'0 0.0
2016-Jul-21 01:32N 29°56' W 093°52'0 0.0
2016-Jul-21 00:29N 29°56' W 093°52'0 0.0
2016-Jul-20 23:32N 29°56' W 093°52'0 0.0
2016-Jul-20 22:32N 29°56' W 093°52'0 0.0
2016-Jul-20 21:32N 29°56' W 093°52'0 0.0
2016-Jul-20 20:32N 29°56' W 093°52'0 0.0
2016-Jul-20 19:32N 29°56' W 093°52'0 0.0
2016-Jul-20 18:32N 29°56' W 093°52'0 0.0
2016-Jul-20 17:32N 29°56' W 093°52'0 0.0
2016-Jul-20 16:32N 29°56' W 093°52'0 0.0
2016-Jul-20 15:32N 29°56' W 093°52'0 0.0
2016-Jul-20 14:32N 29°56' W 093°52'0 0.0
2016-Jul-20 13:32N 29°56' W 093°52'0 0.0
2016-Jul-20 12:32N 29°56' W 093°52'0 0.0
2016-Jul-20 11:32N 29°56' W 093°52'0 0.0
2016-Jul-20 10:32N 29°56' W 093°52'0 0.0
2016-Jul-20 09:32N 29°56' W 093°52'0 0.0
2016-Jul-20 08:32N 29°56' W 093°52'0 0.0
2016-Jul-20 07:32N 29°56' W 093°52'0 0.0
2016-Jul-20 06:29N 29°56' W 093°52'0 0.0
2016-Jul-20 05:32N 29°56' W 093°52'0 0.0
2016-Jul-20 04:32N 29°56' W 093°52'0 0.0
2016-Jul-20 03:32N 29°56' W 093°52'0 0.0
2016-Jul-20 02:29N 29°56' W 093°52'0 0.0
2016-Jul-20 01:32N 29°56' W 093°52'0 0.0
2016-Jul-20 00:32N 29°56' W 093°52'0 0.0
2016-Jul-19 23:32N 29°56' W 093°52'0 0.0
2016-Jul-19 22:32N 29°56' W 093°52'0 0.0
2016-Jul-19 21:26N 29°56' W 093°52'0 0.0
2016-Jul-19 20:32N 29°56' W 093°52'0 0.0
2016-Jul-19 19:32N 29°56' W 093°52'0 0.0
2016-Jul-19 18:32N 29°56' W 093°52'0 0.0
2016-Jul-19 17:32N 29°56' W 093°52'0 0.0
2016-Jul-19 16:32N 29°56' W 093°52'0 0.0
2016-Jul-19 15:32N 29°56' W 093°52'0 0.0
2016-Jul-19 14:32N 29°56' W 093°52'0 0.0
2016-Jul-19 13:32N 29°56' W 093°52'0 0.0
2016-Jul-19 12:32N 29°56' W 093°52'0 0.0
2016-Jul-19 11:32N 29°56' W 093°52'0 0.0
2016-Jul-19 10:32N 29°56' W 093°52'0 0.0
2016-Jul-19 09:32N 29°56' W 093°52'0 0.0
2016-Jul-19 08:26N 29°56' W 093°52'0 0.0
2016-Jul-19 07:32N 29°56' W 093°52'0 0.0
2016-Jul-19 04:29N 29°56' W 093°52'0 0.0
2016-Jul-19 03:32N 29°56' W 093°52'0 0.0
2016-Jul-19 02:34N 29°56' W 093°52'7 7.3
2016-Jul-19 01:33N 29°50' W 093°57'9 8.9
2016-Jul-19 00:33N 29°43' W 093°51'10 9.7
2016-Jul-18 23:32N 29°34' W 093°45'3 0.6
2016-Jul-18 18:12N 29°35' W 093°41'0 0.1
2016-Jul-18 16:18N 29°35' W 093°41'0 0.0
2016-Jul-18 15:33N 29°35' W 093°41'0 0.0
2016-Jul-18 14:21N 29°35' W 093°41'0 0.0
2016-Jul-17 13:23N 29°35' W 093°41'0 0.0
2016-Jul-17 12:29N 29°35' W 093°41'0 0.0
2016-Jul-17 11:09N 29°35' W 093°41'0 0.0
2016-Jul-17 06:17N 29°35' W 093°41'11 6.2
2016-Jul-17 04:28N 29°24' W 093°40'1313.9
2016-Jul-17 03:32N 29°11' W 093°40'  
2016-Jul-14 04:33N 25°52' W 079°28'  
Track history (hours):
 
Tides and Currents Weather Stations Pressure Air Temp Water Temp Dewpoint Dewpoint Depression Visibility Wind Speed Wind Dir Waves Ship Positions

Ocean Tomo

Last reported at 2016-Jul-22 02:23 UTC. Time now 2016-Jul-28 06:41 UTC.
Position N 29°11' W 093°39'.

Length 190 m; draft 11.9 m.

Type: Ship. MMSI: 372951000.

Date/timePositionNaut miles runAvg speedWind from/ knotsBaromVisibWave heightAir tempDewpointWater temp
2016-Jul-22 02:23N 29°11' W 093°39'44 9.0
2016-Jul-21 21:32N 29°52' W 093°56'5 5.2
2016-Jul-21 20:33N 29°56' W 093°52'0 0.0
2016-Jul-21 19:29N 29°56' W 093°52'0 0.0
2016-Jul-21 18:29N 29°56' W 093°52'0 0.0
2016-Jul-21 17:32N 29°56' W 093°52'0 0.0
2016-Jul-21 16:32N 29°56' W 093°52'0 0.0
2016-Jul-21 15:26N 29°56' W 093°52'0 0.0
2016-Jul-21 14:26N 29°56' W 093°52'0 0.0
2016-Jul-21 13:32N 29°56' W 093°52'0 0.0
2016-Jul-21 12:32N 29°56' W 093°52'0 0.0
2016-Jul-21 11:20N 29°56' W 093°52'0 0.0
2016-Jul-21 10:32N 29°56' W 093°52'0 0.0
2016-Jul-21 09:23N 29°56' W 093°52'0 0.0
2016-Jul-21 08:26N 29°56' W 093°52'0 0.0
2016-Jul-21 06:32N 29°56' W 093°52'0 0.0
2016-Jul-21 05:29N 29°56' W 093°52'0 0.0
2016-Jul-21 04:29N 29°56' W 093°52'0 0.0
2016-Jul-21 03:32N 29°56' W 093°52'0 0.0
2016-Jul-21 02:32N 29°56' W 093°52'0 0.0
2016-Jul-21 01:32N 29°56' W 093°52'0 0.0
2016-Jul-21 00:29N 29°56' W 093°52'0 0.0
2016-Jul-20 23:32N 29°56' W 093°52'0 0.0
2016-Jul-20 22:32N 29°56' W 093°52'0 0.0
2016-Jul-20 21:32N 29°56' W 093°52'0 0.0
2016-Jul-20 20:32N 29°56' W 093°52'0 0.0
2016-Jul-20 19:32N 29°56' W 093°52'0 0.0
2016-Jul-20 18:32N 29°56' W 093°52'0 0.0
2016-Jul-20 17:32N 29°56' W 093°52'0 0.0
2016-Jul-20 16:32N 29°56' W 093°52'0 0.0
2016-Jul-20 15:32N 29°56' W 093°52'0 0.0
2016-Jul-20 14:32N 29°56' W 093°52'0 0.0
2016-Jul-20 13:32N 29°56' W 093°52'0 0.0
2016-Jul-20 12:32N 29°56' W 093°52'0 0.0
2016-Jul-20 11:32N 29°56' W 093°52'0 0.0
2016-Jul-20 10:32N 29°56' W 093°52'0 0.0
2016-Jul-20 09:32N 29°56' W 093°52'0 0.0
2016-Jul-20 08:32N 29°56' W 093°52'0 0.0
2016-Jul-20 07:32N 29°56' W 093°52'0 0.0
2016-Jul-20 06:29N 29°56' W 093°52'0 0.0
2016-Jul-20 05:32N 29°56' W 093°52'0 0.0
2016-Jul-20 04:32N 29°56' W 093°52'0 0.0
2016-Jul-20 03:32N 29°56' W 093°52'0 0.0
2016-Jul-20 02:29N 29°56' W 093°52'0 0.0
2016-Jul-20 01:32N 29°56' W 093°52'0 0.0
2016-Jul-20 00:32N 29°56' W 093°52'0 0.0
2016-Jul-19 23:32N 29°56' W 093°52'0 0.0
2016-Jul-19 22:32N 29°56' W 093°52'0 0.0
2016-Jul-19 21:26N 29°56' W 093°52'0 0.0
2016-Jul-19 20:32N 29°56' W 093°52'0 0.0
2016-Jul-19 19:32N 29°56' W 093°52'0 0.0
2016-Jul-19 18:32N 29°56' W 093°52'0 0.0
2016-Jul-19 17:32N 29°56' W 093°52'0 0.0
2016-Jul-19 16:32N 29°56' W 093°52'0 0.0
2016-Jul-19 15:32N 29°56' W 093°52'0 0.0
2016-Jul-19 14:32N 29°56' W 093°52'0 0.0
2016-Jul-19 13:32N 29°56' W 093°52'0 0.0
2016-Jul-19 12:32N 29°56' W 093°52'0 0.0
2016-Jul-19 11:32N 29°56' W 093°52'0 0.0
2016-Jul-19 10:32N 29°56' W 093°52'0 0.0
2016-Jul-19 09:32N 29°56' W 093°52'0 0.0
2016-Jul-19 08:26N 29°56' W 093°52'0 0.0
2016-Jul-19 07:32N 29°56' W 093°52'0 0.0
2016-Jul-19 04:29N 29°56' W 093°52'0 0.0
2016-Jul-19 03:32N 29°56' W 093°52'0 0.0
2016-Jul-19 02:34N 29°56' W 093°52'7 7.3
2016-Jul-19 01:33N 29°50' W 093°57'9 8.9
2016-Jul-19 00:33N 29°43' W 093°51'10 9.7
2016-Jul-18 23:32N 29°34' W 093°45'3 0.6
2016-Jul-18 18:12N 29°35' W 093°41'0 0.1
2016-Jul-18 16:18N 29°35' W 093°41'0 0.0
2016-Jul-18 15:33N 29°35' W 093°41'0 0.0
2016-Jul-18 14:21N 29°35' W 093°41'0 0.0
2016-Jul-17 13:23N 29°35' W 093°41'0 0.0
2016-Jul-17 12:29N 29°35' W 093°41'0 0.0
2016-Jul-17 11:09N 29°35' W 093°41'0 0.0
2016-Jul-17 06:17N 29°35' W 093°41'11 6.2
2016-Jul-17 04:28N 29°24' W 093°40'1313.9
2016-Jul-17 03:32N 29°11' W 093°40'  
2016-Jul-14 04:33N 25°52' W 079°28'  

Dump ship's entire track history